Accueil
METAR-TAF:

METAR-TAF

Aéroports :

Mahikeng, Afrique du Sud

latitude: 25-47S, longitude: 025-32E, altitude: 1281 m

Observation

Le bulletin a été fait il y a 1 heure et 15 minutes, à 10:00 UTC
Vent 13 kt de nord/nord-est
Température 17°C
Humidité 48%
Pression 1026 hPa

METAR: FAMM 171000Z AUTO 02013KT //// // ////// 17/06 Q1026

Heure: 13:15 (11:15 UTC)

Prévision

Le bulletin a été fait il y a 2 heures et 15 minutes, à 09:00 UTC
Prévision valable du 17 à 10 UTC au 17 à 18 UTC
Vent 13 kt de nord/nord-est
Visibilité 10 km ou plus
pas de nuages en-dessous de 1500 mètres et pas de cumulonimbus.

TAF: FAMM 170900Z 1710/1718 02013KT CAVOK TX21/1713Z TN12/1718Z

Observations et prévisions météorologiques de plus de 4000 aéroports (messages METAR et TAF).

Les stations disponibles sont représentées par des disques jaunes et rouges sur la carte.

Passer la souris dessus pour voir le nom de la station.

Cliquer dessus pour voir les observations et prévisions météorologiques.

Pour changer de carte: cliquez sur les boutons verts avec une croix noire pour zoomer, sur le bouton vert avec un tiret pour effectuer un zoom arrière, ou sur les flèches vertes pour les cartes adjacentes.


METAR-TAF: